Rechercher aéroport 
image banner adimage banner adimage banner ad
image banner ad

O62 - Carmel Valley

Situé à Enterprise, United States

ICAO - O62, IATA - O62

Données fournies par Airmate  

Information générale

Coordonnées: N45°43'27" W117°4'39"
Élévation : 4007 feet MSL.
 
Voir autres Aéroports à California

Données opérationnelles

Special qualification required
Heure actuelle UTC:
Heure actuelle locale:
Météo à : KLWS - Lewiston-Nez Perce County ( 72 km )
METAR: KLWS 262256Z 00000KT 10SM CLR 36/04 A2983 RMK AO2 SLP089 T03560044
TAF: KLWS 261734Z 2618/2718 31003KT 6SM FU SCT150 BKN250 FM262000 35005KT P6SM SCT150 BKN250 FM270300 VRB04KT P6SM VCSH BKN120 BKN200 FM271300 05004KT 5SM FU SCT150 BKN200
Voir NOTAMs / SUP AIP / TFR affectant cet aéroport [VIEW]
Fréquences de communication: [VIEW]

Pistes:

Identifiant RWYQFULongueur (ft)Largeur (ft)SurfaceLDA (ft)
04185030GRASS
22185030GRASS

Coordonnées de l'aéroport

Adresse: Enterprise United States

Vue satellite de O62